CheckWX is a tool to help pilots better visualize weather data.  It is not intended as a substitute for an official pre-flight weather briefing.

15:47:50 UTC

KRGA METAR
Central Kentucky Regional Airport
Richmond, Kentucky, USA
Current

13 mins ago

KRGA 171535Z AUTO 29005KT 10SM CLR 30/19 A3006 RMK AO2
Observed
Aug-17 @ 15:35 UTC
Wind
  • 290° at 5 KTS
Visibility
10 SM
Flight Rules
VFR
Cloud Levels
  • Clear skies
Temperature
30°C / 86°F
Dewpoint
19°C / 66°F
Heat Index
31°C / 88°F
Humidity
52%
Altimeter
30.06" Hg
Pressure
1017.92 hPa
Previous

33 mins ago

KRGA 171515Z AUTO 19005KT 10SM CLR 30/19 A3005 RMK AO2
Observed
Aug-17 @ 15:15 UTC
Wind
  • 190° at 5 KTS
Visibility
10 SM
Flight Rules
VFR
Cloud Levels
  • Clear skies
Temperature
30°C / 86°F
Dewpoint
19°C / 66°F
Heat Index
31°C / 88°F
Humidity
52%
Altimeter
30.05" Hg
Pressure
1017.62 hPa
Previous

53 mins ago

KRGA 171455Z AUTO 22005KT 10SM CLR 29/19 A3005 RMK AO2
Observed
Aug-17 @ 14:55 UTC
Wind
  • 220° at 5 KTS
Visibility
10 SM
Flight Rules
VFR
Cloud Levels
  • Clear skies
Temperature
29°C / 84°F
Dewpoint
19°C / 66°F
Heat Index
30°C / 86°F
Humidity
55%
Altimeter
30.05" Hg
Pressure
1017.62 hPa